Braggs, Oklahoma
Current Conditions -  °F | °C
As of 3:53 AM on Wednesday 22 Oct 2014 (Local Time) from KMKO Reporting Station
Clear Clear  
Wind Chill: 59°   Ceiling: Unl
Heat Index: 59°   Visibility: 7mi
Dew Point: 57°   Wind: 6mph
Humidity: 93%   Direction: 150°SSE
Pressure: 30.11"   Gusts: NA
Location:  35.66°N, 95.2°W
Report Text: KMKO 220853Z AUTO 15005KT 7SM CLR 15/14 A3011 RMK AO2 SLP189 T01500139 51005
Loading
Personal Weather Stations






























Interactive Weather Map
Tropical Storm Tracking
New forecast layout! Learn more

10-Day Weather Forecast

Advertisements
Track Severe Weather on mobile